• Join FlightAware (Why Join?)
  • Login
  • US Flag 
03:09AM EDT


 

Airport Tracker/Info


-or-


 

Live Flight TrackerFlight Track Log ✈ OPT429 ✈ 29-Jun-2014 ✈ KHSA - KLWC

Flight Track Log - Related Links

Times and Time Zones

All times are in EDT time to prevent confusion due to time zone crossing. See the OPT429 flight status page for this flight to view local times or setup timezone preferences in your user account.

Time Position Orientation Groundspeed Altitude Reporting Facility
EDT Latitude Longitude Course Direction KTS MPH feet Rate Location/Type
10:55AM 30.3250 -89.4847 315° West 189 217 4,000  Level Houston Center
10:56AM 30.3600 -89.5256 315° West 182 209 6,500 2,220 Climbing Houston Center
10:57AM 30.4167 -89.5664 328° Northwest 238 274 8,600 2,100 Climbing Houston Center
10:58AM 30.4817 -89.6158 327° Northwest 276 318 10,900 2,100 Climbing Houston Center
10:59AM 30.5636 -89.6550 338° Northwest 313 360 13,000 2,280 Climbing Houston Center
11:00AM 30.6650 -89.7058 337° Northwest 331 381 15,700 2,220 Climbing Houston Center
11:01AM 30.7536 -89.7497 337° Northwest 343 395 17,700 1,920 Climbing Houston Center
11:02AM 30.8439 -89.7953 337° Northwest 350 403 19,800 1,920 Climbing Houston Center
11:03AM 30.9367 -89.8411 337° Northwest 357 411 21,700 1,740 Climbing Houston Center
11:04AM 31.0308 -89.8897 336° Northwest 366 421 23,500 1,800 Climbing Houston Center
11:05AM 31.1458 -89.9469 337° Northwest 371 427 25,500 1,500 Climbing Houston Center
11:06AM 31.2461 -89.9975 337° Northwest 390 449 26,600 1,020 Climbing Houston Center
11:07AM 31.3508 -90.0506 337° Northwest 405 466 27,700 1,080 Climbing Houston Center
11:08AM 31.4561 -90.1039 337° Northwest 411 473 28,900 1,080 Climbing Houston Center
11:09AM 31.5650 -90.1589 337° Northwest 423 487 30,000 1,140 Climbing Houston Center
11:10AM 31.6819 -90.2183 337° Northwest 428 493 31,200 1,140 Climbing Memphis Center
11:11AM 31.7947 -90.2764 336° Northwest 437 503 32,300 1,020 Climbing Memphis Center
11:12AM 31.9075 -90.3339 337° Northwest 440 506 33,400 1,200 Climbing Memphis Center
11:13AM 32.0208 -90.3928 336° Northwest 444 511 34,800 780 Climbing Memphis Center
11:14AM 32.1342 -90.4514 336° Northwest 444 511 35,000 60 Climbing Memphis Center
11:15AM 32.2503 -90.5114 336° Northwest 449 517 35,000  Level Memphis Center
11:16AM 32.3667 -90.5722 336° Northwest 454 522 35,000 60 Level Memphis Center
11:17AM 32.5067 -90.6442 337° Northwest 456 525 35,200 660 Climbing Memphis Center
11:18AM 32.6219 -90.7044 336° Northwest 456 525 36,400 1,140 Climbing Memphis Center
11:20AM 32.7375 -90.7653 336° Northwest 455 524 37,600 1,260 Climbing Memphis Center
11:21AM 32.8500 -90.8247 336° Northwest 451 519 39,100 1,440 Climbing Memphis Center
11:22AM 32.9578 -90.8803 337° Northwest 432 497 40,600 1,440 Climbing Memphis Center
11:23AM 33.0619 -90.9356 336° Northwest 418 481 42,100 1,140 Climbing Memphis Center
11:24AM 33.1822 -90.9978 337° Northwest 399 459 43,000 420 Climbing Memphis Center
11:25AM 33.2850 -91.0533 336° Northwest 400 460 43,000  Level Memphis Center
11:26AM 33.3914 -91.1108 336° Northwest 413 475 43,000  Level Memphis Center
11:27AM 33.5003 -91.1672 337° Northwest 422 486 43,000  Level Memphis Center
11:28AM 33.6094 -91.2264 336° Northwest 429 494 43,000  Level Memphis Center
11:29AM 33.7189 -91.2850 336° Northwest 430 495 43,000  Level Memphis Center
11:30AM 33.8386 -91.3494 336° Northwest 426 490 43,000  Level Memphis Center
11:31AM 33.9439 -91.4050 336° Northwest 419 482 43,000  Level Memphis Center
11:32AM 34.0469 -91.4619 335° Northwest 412 474 43,000  Level Memphis Center
11:33AM 34.1522 -91.5186 336° Northwest 412 474 43,000  Level Memphis Center
11:34AM 34.2589 -91.5767 336° Northwest 414 476 43,000  Level Memphis Center
11:35AM 34.3869 -91.6456 336° Northwest 416 479 43,000  Level Memphis Center
11:36AM 34.4953 -91.7044 336° Northwest 420 483 43,000  Level Memphis Center
11:37AM 34.6031 -91.7653 335° Northwest 421 484 43,000  Level Memphis Center
11:38AM 34.7106 -91.8244 336° Northwest 421 484 43,000  Level Memphis Center
11:39AM 34.8181 -91.8825 336° Northwest 421 484 43,000  Level Memphis Center
11:40AM 34.9258 -91.9414 336° Northwest 421 484 43,000  Level Memphis Center
11:41AM 35.0339 -92.0006 336° Northwest 422 486 43,000  Level Memphis Center
11:42AM 35.1622 -92.0719 336° Northwest 422 486 43,000  Level Memphis Center
11:43AM 35.2678 -92.1319 335° Northwest 422 486 43,000  Level Memphis Center
11:44AM 35.3733 -92.1914 335° Northwest 422 486 43,000  Level Memphis Center
11:45AM 35.4775 -92.2489 336° Northwest 417 480 43,000  Level Memphis Center
11:46AM 35.5800 -92.3069 335° Northwest 413 475 43,000  Level Memphis Center
11:47AM 35.6822 -92.3639 336° Northwest 411 473 43,000  Level Memphis Center
11:48AM 35.8044 -92.4325 336° Northwest 406 467 43,000  Level Memphis Center
11:49AM 35.9061 -92.4911 335° Northwest 406 467 43,000  Level Memphis Center
11:50AM 36.0097 -92.5497 335° Northwest 407 468 43,000  Level Memphis Center
11:51AM 36.1131 -92.6086 335° Northwest 407 468 43,000  Level Memphis Center
11:52AM 36.2169 -92.6672 336° Northwest 407 468 43,000  Level Memphis Center
11:53AM 36.3211 -92.7283 335° Northwest 410 472 43,000  Level Memphis Center
11:54AM 36.4261 -92.7897 335° Northwest 414 476 43,000  Level Memphis Center
11:56AM 36.5525 -92.8617 335° Northwest 414 476 43,000  Level Memphis Center
11:57AM 36.6583 -92.9236 335° Northwest 414 476 43,000  Level Memphis Center
11:57AM 36.7228 -92.9644 333° Northwest 414 476 43,000  Level Kansas City Center
11:58AM 36.8267 -93.0244 335° Northwest 414 476 43,000  Level Kansas City Center
11:59AM 36.9322 -93.0869 335° Northwest 414 476 43,000  Level Kansas City Center
12:00PM 37.0369 -93.1458 336° Northwest 414 476 43,000  Level Kansas City Center
12:01PM 37.1639 -93.2211 335° Northwest 414 476 43,000  Level Kansas City Center
12:02PM 37.2706 -93.2844 335° Northwest 416 479 43,000  Level Kansas City Center
12:03PM 37.3728 -93.3550 331° Northwest 417 480 43,000  Level Kansas City Center
12:04PM 37.4525 -93.4550 315° West 403 464 43,000 -840 Level Kansas City Center
12:06PM 37.5353 -93.5572 316° Northwest 405 466 41,300 -2,040 Descending Kansas City Center
12:07PM 37.6208 -93.6639 315° West 420 483 38,800 -2,400 Descending Kansas City Center
12:08PM 37.7072 -93.7731 315° West 431 496 36,300 -2,700 Descending Kansas City Center
12:09PM 37.8128 -93.9044 316° Northwest 437 503 33,300 -2,640 Descending Kansas City Center
12:10PM 37.8931 -94.0053 315° West 415 478 31,000 -2,280 Descending Kansas City Center
12:11PM 37.9753 -94.1103 315° West 415 478 28,600 -2,460 Descending Kansas City Center
12:12PM 38.0667 -94.2250 315° West 430 495 25,900 -2,520 Descending Kansas City Center
12:13PM 38.1525 -94.3358 315° West 441 507 23,400 -2,460 Descending Kansas City Center
12:14PM 38.2342 -94.4425 314° West 429 494 21,000 -2,280 Descending Kansas City Center
12:15PM 38.3178 -94.5333 320° Northwest 409 471 18,800 -2,160 Descending Kansas City Center
12:16PM 38.4019 -94.6117 324° Northwest 379 436 16,600 -2,100 Descending Kansas City Center
12:17PM 38.4831 -94.6925 322° Northwest 375 432 14,500 -2,220 Descending Kansas City Center
12:18PM 38.5786 -94.7864 322° Northwest 364 419 12,000 -2,220 Descending Kansas City Center
12:19PM 38.6511 -94.8581 322° Northwest 333 383 10,000 -2,040 Descending Kansas City Center
12:20PM 38.7158 -94.9222 322° Northwest 295 339 7,900 -2,040 Descending Kansas City Center
12:21PM 38.7747 -94.9811 322° Northwest 274 315 5,900 -2,040 Descending Kansas City Center
12:22PM 38.8322 -95.0375 323° Northwest 264 304 3,800 -1,380 Descending Kansas City Center
12:23PM 38.8886 -95.0942 322° Northwest 261 300 3,100 -720 Descending Kansas City Center